« 定点 富山空港 2018/12/19 wed | トップページ | 定点 富山空港 2018/12/21 fri »

2018/12/20

美ら島エアーフェスタ2018【2日目基地編】 那覇空港 2018/12/9 sun

エアーフェスタの二日目。開場はゆっくりなれど、いつものようにタンク山で、出発機を見ながら、開門待ち。

ROAH 090030Z 03012KT 360V070 9999 -RA FEW020 BKN040 19/14 Q1024 RMK 1CU020 6SC040 A3024

20181209_roah_100ja73nk

SKY510 ROAH-RJTT JA73NK B737-86N

20181209_roah_101b50001

TTW231 ROAH-RCTP B-50001 A320-232

ROAH 090130Z 04014KT 9999 -RA FEW020 BKN040 19/15 Q1024 RMK 2CU020 6SC040 A3026

20181209_roah_102ja09rk

JTA52 ROAH-RJFF JA09RK B737-8Q3

20181209_roah_103kanban

押っ取り刀で那覇基地へ

20181209_roah_104dog

シーサーがお出迎え

20181209_roah_105dog

警備犬がお出迎え

20181209_roah_106dog

この子は、おもちゃに夢中

ROAH 090200Z 04013KT 9999 -RA SCT015 BKN040 19/14 Q1024 RMK 3CU015 7SC040 A3025

20181209_roah_107ja123e

JA123E PA-34-220T KNK  今日も、いきなり見せて離陸していきました。

20181209_roah_108twr

那覇タワーも来年は、見ることができるでしょうか?

20181209_roah_109f078428

早速、白尾白

20181209_roah_110f302sq

いろいろ小物が沢山

20181209_roah_111f302sq

07-8428 F-4EJk 302SQ

20181209_roah_112f302sq

ツアースタッフさんのつなぎ

20181209_roah_113f302sq

右肩には

20181209_roah_114f238115

23-8115 F-2B 6SQ

20181209_roah_115t365698

コクピット公開は、格納庫の中 #698

20181209_roah_116f204sq

白頭鷲は、大漁旗

20181209_roah_117f304sq

天狗さんは、天狗

20181209_roah_118h574493

57-4493 CH-47J(LR) NAHA-HT

20181209_roah_119ja721a

今年の海保さんは、ボンバル

20181209_roah_120ja721a

後部ドア前のこのギザギザが気になる

20181209_roah_121ja721a

JA721A DHC8-315Q JCG

20181209_roah_122c281001

みんな銀ちゃんと呼んでます


20181209_roah_123c281001

28-1001 C-1 ADTW

20181209_roah_124ja8571

JA8571 F900 JCG 昨日からコンパスエプロンで調整が続いています。

ROAH 090230Z 05011KT 9999 -RA FEW015 SCT035 BKN070 19/14 Q1023 RMK 1CU015 4SC035 7AC070 A3023

20181209_roah_125ja007g

MRO前にはフライトチェッカー JA007G DHC8-315Q CAB

20181209_roah_126avc

これから模擬急患空輸展示

20181209_roah_127bi

ブルーライン

20181209_roah_128t665745

#1 66-5745 T-4 11SQ

20181209_roah_129t065787

#2 06-5787 T-4 11SQ

20181209_roah_130t265692

#3 26-5692 T-4 11SQ

20181209_roah_131t265686

#4 26-5686 T-4 11SQ

20181209_roah_132t065790

#5 06-5790 T-4 11SQ

20181209_roah_133t265690

#6 26-5690 T-4 11SQ

20181209_roah_134t465731

#7 46-5731 T-4 11SQ

20181209_roah_135bi

列線前は、比較的空いていました。

20181209_roah_136par

那覇GCAは更新されて、新しいPARアンテナドームがかわいい

20181209_roah_137t165801

16-5801 T-4 SWAF

20181209_roah_138t665743

66-5743 T-4 SWAF

20181209_roah_139t565740

56-5740 T-4 SWAF

20181209_roah_140f328941

32-8941 F-15J 304SQ

20181209_roah_141f528954

52-8954 F-15J 304SQ

20181209_roah_142f228935

22-8935 F-15J 204SQ

20181209_roah_143f928909

92-8909 F-15J 204SQ

20181209_roah_144f828905

82-8905 F-15J 204SQ

20181209_roah_145f128927

12-8927 F-15J 204SQ

20181209_roah_146ja8998

JA8998 B737-446 JTA

20181209_roah_147jg23054

JG23054 LR-2 XV

20181209_roah_148u623004

62-3004 U-125A NAHA-ARS

20181209_roah_149jcg

さっそく見つけました うみまる君

20181209_roah_150po

レスキュー展示は警察

20181209_roah_151po

装備品展示 那覇市消防は来とらんだ

20181209_roah_152jg

陸自偵察バイク

20181209_roah_153e343452

34-3452 E-2C 603SQ

20181209_roah_154rq

今日のレスキューは何人までいったかな?

20181209_roah_155rq

装備品展示

20181209_roah_156rq

人命救助システムの装備品

ROAH 090230Z 05011KT 9999 -RA FEW015 SCT035 BKN070 19/14 Q1023 RMK 1CU015 4SC035 7AC070 A3023

20181209_roah_157m5101

5101 P-3C VP-5

20181209_roah_158m5101

歴戦を物語っています

20181209_roah_159ana

ANAブース

20181209_roah_160jta

JTAブース

20181209_roah_161post_3

POSTのキャラクターは、何?

20181209_roah_162fes

今日もステージは、大盛況

20181209_roah_163t965625

96-5625 T-4 SWAF

20181209_roah_164doc

盛況の会場を密かに見守る衛生隊

飛行編へ続く

|

« 定点 富山空港 2018/12/19 wed | トップページ | 定点 富山空港 2018/12/21 fri »

BI」カテゴリの記事

那覇空港」カテゴリの記事

コメント

コメントを書く



(ウェブ上には掲載しません)


コメントは記事投稿者が公開するまで表示されません。



トラックバック


この記事へのトラックバック一覧です: 美ら島エアーフェスタ2018【2日目基地編】 那覇空港 2018/12/9 sun:

« 定点 富山空港 2018/12/19 wed | トップページ | 定点 富山空港 2018/12/21 fri »